Weather at S. Darius and S. Girėnas Airfield

Public forecast

Using degrees Celsius for public forecast. Weather courtesy of forecast.io.

Closest aviation weather report (METAR) to S. Darius and S. Girėnas Airfield

Closest report is Kaunas International Airport, 8.6 nm (16.0 km) NE. Retrieved 2021/04/19 05:20 UTC (13 minutes ago):

EYKA 190520Z 06004KT 030V100 CAVOK 08/M02 Q1020

Closest aviation forecast (TAF) to S. Darius and S. Girėnas Airfield

Closest forecast is Kaunas International Airport, 8.6 nm (16.0 km) NE. Retrieved 2021-04-19 00:18 UTC (5 hours ago):

TAF TAF COR EYKA 182313Z 1900/1924 03004KT CAVOK TEMPO 1908/1916 09014KT